Florida, Uruguay

1:04 AM UYST on October 25, 2014 (GMT -0200)
Carrasco International-Gen C L Berisso | Change Station
CLOSE
Current Station
Airport
Location: Montevideo,
Elevation: 105 ft
Nearby Weather Stations

Elev 105 ft 34.83 °S, 56.01 °W | Updated 1 hour ago

Clear
Clear
68 °F
Feels Like 68 °F
N
6
Wind Variable Wind from ENE

Today
High -- | Low -- °F
--% Chance of Precip.
Yesterday
High -- | Low -- °F
Precip. -- in
6:51 AM 8:07 PM
New Moon, 2% visible
Pressure 29.95 in
Visibility -9999.0 miles
Clouds
Dew Point 66 °F
Humidity 94%
Rainfall 0.00 in
Snow Depth Not available.
UV Not available.
Pollen Not available.
Air Quality Not available.
Flu Activity Not available.
METAR SUMU 250200Z 06005KT CAVOK 20/19 Q1014 TEMPO BR

More Conditions Fewer Conditions

Pressure 29.95 in
Visibility -9999.0 miles
Clouds
Dew Point 66 °F
Humidity 94%
Rainfall 0.00 in
Snow Depth Not available.
UV Not available.
Pollen Not available.
Air Quality Not available.
Flu Activity Not available.
METAR SUMU 250200Z 06005KT CAVOK 20/19 Q1014 TEMPO BR

More Conditions Fewer Conditions

10-Day Weather Forecast

Almanac

Astronomy

Oct. 25, 2014 Rise Set
Actual Time 6:51 AM UYST 8:07 PM UYST
Civil Twilight 6:25 AM UYST 8:33 PM UYST
Nautical Twilight 5:54 AM UYST 9:04 PM UYST
Astronomical Twilight 5:21 AM UYST 9:36 PM UYST
Moon 8:00 AM UYST 9:56 PM UYST
Length of Visible Light 14h 07m
Length of Day
13h 15m
Tomorrow will be 1m 59s longer.
New Moon, 2% of the Moon is Illuminated
Oct 24
New Moon
Oct 30
First Quarter
Nov 6
Full
Nov 14
Last Quarter
Nov 22
New

Yesterday's Extremes

Country Highs Country Lows

Community

WunderPhotos

Upload Photos

1,764,762 photos uploaded!

Nearby

Snow Depth

Not available.

Earthquake Activity

City Distance Mag. Time & Date
No recent earthquake activity has been reported nearby.
Minimum magnitude displayed is 2.5.

Coastal Water Temperatures

Place Temperature
No Stations Reporting

Nearby Weather Stations